createdAt,value
2022-08-11T00:02:04.722Z,31.99
2022-08-11T00:07:07.822Z,32.13
2022-08-11T00:12:34.064Z,32.17
2022-08-11T00:17:36.972Z,32.20
2022-08-11T00:22:41.962Z,32.60
2022-08-11T00:27:44.958Z,33.13
2022-08-11T00:32:56.237Z,33.22
2022-08-11T00:38:00.237Z,33.05
2022-08-11T00:43:20.727Z,32.94
2022-08-11T00:48:22.694Z,32.72
2022-08-11T00:53:50.264Z,32.77
2022-08-11T00:59:35.238Z,33.44
2022-08-11T01:05:23.224Z,33.34
2022-08-11T01:10:54.851Z,33.49
2022-08-11T01:16:58.134Z,33.67
2022-08-11T01:22:24.166Z,33.97
2022-08-11T01:28:10.793Z,34.08
2022-08-11T01:33:37.786Z,34.39
2022-08-11T01:39:01.407Z,34.77
2022-08-11T01:44:38.426Z,34.75
2022-08-11T01:50:08.001Z,34.92
2022-08-11T01:55:26.898Z,35.35
2022-08-11T02:00:33.276Z,35.64
2022-08-11T02:06:01.406Z,35.84
2022-08-11T02:11:25.042Z,35.84
2022-08-11T02:16:58.037Z,36.02
2022-08-11T02:22:33.714Z,36.32
2022-08-11T02:27:53.018Z,36.53
2022-08-11T02:33:23.583Z,36.59
2022-08-11T02:38:34.075Z,36.44
2022-08-11T02:43:50.996Z,36.63
2022-08-11T02:49:30.956Z,36.79
2022-08-11T02:54:44.840Z,36.77
2022-08-11T02:59:59.834Z,37.04
2022-08-11T03:05:21.107Z,37.54
2022-08-11T03:10:28.904Z,37.71
2022-08-11T03:16:27.895Z,38.00
2022-08-11T03:22:01.124Z,38.26
2022-08-11T03:27:31.377Z,38.15
2022-08-11T03:32:42.770Z,38.39
2022-08-11T03:37:54.263Z,38.64
2022-08-11T03:43:08.008Z,38.71
2022-08-11T03:48:14.297Z,38.93
2022-08-11T03:53:53.661Z,39.27
2022-08-11T03:59:30.736Z,39.24
2022-08-11T04:05:09.946Z,38.84
2022-08-11T04:10:42.413Z,38.89
2022-08-11T04:16:16.604Z,38.61
2022-08-11T04:21:43.206Z,38.75
2022-08-11T04:27:37.275Z,38.64
2022-08-11T04:32:56.585Z,38.69
2022-08-11T04:38:40.424Z,38.42
2022-08-11T04:44:02.728Z,38.60
2022-08-11T04:49:54.270Z,38.52
2022-08-11T04:55:52.031Z,38.36
2022-08-11T05:01:43.852Z,38.33
2022-08-11T05:07:15.045Z,38.19
2022-08-11T05:12:36.020Z,38.26
2022-08-11T05:18:34.185Z,38.04
2022-08-11T05:23:59.503Z,37.87
2022-08-11T05:29:24.147Z,37.70
2022-08-11T05:34:49.861Z,37.69
2022-08-11T05:40:14.660Z,37.59
2022-08-11T05:45:57.258Z,37.64
2022-08-11T05:51:25.554Z,37.42
2022-08-11T05:56:34.916Z,37.25
2022-08-11T06:01:36.950Z,37.24
2022-08-11T06:06:47.131Z,36.89
2022-08-11T06:11:50.323Z,36.71
2022-08-11T06:16:57.070Z,36.57
2022-08-11T06:22:01.186Z,36.33
2022-08-11T06:27:12.739Z,36.03
2022-08-11T06:32:16.563Z,35.77
2022-08-11T06:37:36.468Z,35.37
2022-08-11T06:42:47.782Z,35.39
2022-08-11T06:47:50.125Z,35.18
2022-08-11T06:52:53.957Z,35.05
2022-08-11T06:58:14.857Z,34.36
2022-08-11T07:03:19.691Z,33.91
2022-08-11T07:09:17.827Z,33.58
2022-08-11T07:14:45.580Z,33.09
2022-08-11T07:20:20.925Z,32.81
2022-08-11T07:25:43.484Z,32.71
2022-08-11T07:30:47.606Z,32.31
2022-08-11T07:35:57.727Z,31.86
2022-08-11T07:41:00.018Z,31.62
2022-08-11T07:46:23.117Z,31.25
2022-08-11T07:51:43.852Z,30.91
2022-08-11T07:57:07.620Z,31.22
2022-08-11T08:02:29.467Z,30.57
2022-08-11T08:07:51.694Z,29.96
2022-08-11T08:13:16.557Z,29.38
2022-08-11T08:18:26.077Z,28.91
2022-08-11T08:23:35.623Z,28.51
2022-08-11T08:28:37.740Z,28.26
2022-08-11T08:33:42.354Z,27.99
2022-08-11T08:38:54.325Z,27.21
2022-08-11T08:44:27.750Z,26.81
2022-08-11T08:49:40.511Z,26.99
2022-08-11T08:55:04.331Z,26.58
2022-08-11T09:00:07.646Z,26.32
2022-08-11T09:05:12.293Z,26.23
2022-08-11T09:10:17.466Z,26.27
2022-08-11T09:15:20.155Z,26.19
2022-08-11T09:20:25.898Z,25.72
2022-08-11T09:25:50.056Z,25.69
2022-08-11T09:30:56.343Z,25.52
2022-08-11T09:36:20.331Z,25.23
2022-08-11T09:41:25.563Z,24.54
2022-08-11T09:46:30.482Z,24.31
2022-08-11T09:51:34.331Z,23.91
2022-08-11T09:56:55.253Z,24.26
2022-08-11T10:02:00.290Z,24.29
2022-08-11T10:07:06.958Z,23.95
2022-08-11T10:12:12.181Z,23.98
2022-08-11T10:17:16.165Z,24.00
2022-08-11T10:22:37.769Z,23.43
2022-08-11T10:28:28.712Z,23.03
2022-08-11T10:33:36.581Z,23.36
2022-08-11T10:38:40.658Z,23.30
2022-08-11T10:44:03.126Z,22.89
2022-08-11T10:49:08.318Z,22.49
2022-08-11T10:54:29.661Z,21.80
2022-08-11T10:59:34.652Z,21.59
2022-08-11T11:04:51.872Z,21.61
2022-08-11T11:10:04.039Z,21.42
2022-08-11T11:15:25.576Z,21.09
2022-08-11T11:20:36.938Z,20.53
2022-08-11T11:26:06.759Z,20.41
2022-08-11T11:31:26.751Z,19.92
2022-08-11T11:36:46.703Z,20.13
2022-08-11T11:41:52.071Z,19.67
2022-08-11T11:46:54.269Z,19.47
2022-08-11T11:51:58.309Z,19.17
2022-08-11T11:57:22.362Z,18.79
2022-08-11T12:02:24.519Z,18.67
2022-08-11T12:07:45.183Z,18.58
2022-08-11T12:13:24.497Z,18.38
2022-08-11T12:18:26.496Z,18.09
2022-08-11T12:23:47.704Z,18.05
2022-08-11T12:28:50.662Z,17.73
2022-08-11T12:33:53.977Z,17.76
2022-08-11T12:38:56.463Z,17.84
2022-08-11T12:44:23.428Z,17.96
2022-08-11T12:49:49.564Z,17.55
2022-08-11T12:54:57.971Z,17.51
2022-08-11T13:00:27.013Z,17.46
2022-08-11T13:05:33.202Z,17.32
2022-08-11T13:11:03.757Z,17.35
2022-08-11T13:16:07.096Z,17.46
2022-08-11T13:21:20.388Z,17.50
2022-08-11T13:26:36.948Z,17.08
2022-08-11T13:31:47.222Z,17.22
2022-08-11T13:36:52.728Z,16.88
2022-08-11T13:41:57.281Z,16.90
2022-08-11T13:47:04.348Z,16.68
2022-08-11T13:52:10.129Z,17.06
2022-08-11T13:58:07.134Z,17.13
2022-08-11T14:02:42.719Z,16.80
2022-08-11T14:08:02.382Z,17.06
2022-08-11T14:13:41.235Z,17.06
2022-08-11T14:18:51.593Z,17.06
2022-08-11T14:24:01.423Z,16.90
2022-08-11T14:29:08.685Z,17.09
2022-08-11T14:34:13.248Z,17.23
2022-08-11T14:39:18.540Z,17.52
2022-08-11T14:44:39.785Z,17.76
2022-08-11T14:49:56.166Z,17.58
2022-08-11T14:55:19.908Z,17.66
2022-08-11T15:00:22.381Z,17.92
2022-08-11T15:05:25.958Z,17.98
2022-08-11T15:10:28.634Z,17.96
2022-08-11T15:15:50.383Z,17.75
2022-08-11T15:21:12.049Z,18.36
2022-08-11T15:26:48.350Z,18.55
2022-08-11T15:32:08.672Z,18.40
2022-08-11T15:37:27.361Z,18.18
2022-08-11T15:42:50.026Z,18.48
2022-08-11T15:48:05.520Z,18.64
2022-08-11T15:53:30.357Z,18.58
2022-08-11T15:59:10.642Z,18.49
2022-08-11T16:04:24.471Z,18.56
2022-08-11T16:09:51.907Z,18.98
2022-08-11T16:15:19.953Z,19.28
2022-08-11T16:20:26.213Z,19.17
2022-08-11T16:27:04.999Z,18.86
2022-08-11T16:30:52.380Z,18.92
2022-08-11T16:36:13.827Z,18.98
2022-08-11T16:41:38.649Z,19.43
2022-08-11T16:46:58.903Z,19.19
2022-08-11T16:52:04.130Z,19.44
2022-08-11T16:57:27.610Z,19.24
2022-08-11T17:02:52.782Z,19.74
2022-08-11T17:08:14.984Z,19.83
2022-08-11T17:13:20.776Z,19.45
2022-08-11T17:18:43.414Z,19.71
2022-08-11T17:23:52.044Z,19.80
2022-08-11T17:28:59.459Z,20.26
2022-08-11T17:34:23.076Z,20.36
2022-08-11T17:39:29.458Z,20.15
2022-08-11T17:44:52.320Z,20.34
2022-08-11T17:49:55.342Z,20.42
2022-08-11T17:55:51.917Z,20.59
2022-08-11T18:00:55.178Z,20.75
2022-08-11T18:05:59.654Z,20.69
2022-08-11T18:12:10.409Z,20.74
2022-08-11T18:17:06.237Z,20.93
2022-08-11T18:22:32.115Z,21.21
2022-08-11T18:27:55.265Z,21.35
2022-08-11T18:39:04.948Z,21.63
2022-08-11T18:44:29.259Z,21.66
2022-08-11T18:50:03.505Z,21.81
2022-08-11T18:55:35.448Z,21.99
2022-08-11T19:00:58.579Z,22.11
2022-08-11T19:06:38.478Z,22.21
2022-08-11T19:12:03.859Z,22.39
2022-08-11T19:17:43.586Z,22.48
2022-08-11T19:23:07.918Z,22.53
2022-08-11T19:28:28.681Z,23.59
2022-08-11T19:34:00.397Z,23.12
2022-08-11T19:39:32.095Z,24.17
2022-08-11T19:44:53.651Z,24.81
2022-08-11T19:50:21.509Z,25.20
2022-08-11T19:55:48.597Z,25.51
2022-08-11T20:01:09.264Z,24.95
2022-08-11T20:06:30.391Z,24.95
2022-08-11T20:11:54.686Z,24.97
2022-08-11T20:17:16.608Z,24.99
2022-08-11T20:22:38.074Z,25.29
2022-08-11T20:28:02.337Z,25.47
2022-08-11T20:33:23.727Z,25.68
2022-08-11T20:38:48.568Z,25.61
2022-08-11T20:44:10.103Z,25.88
2022-08-11T20:49:40.892Z,25.59
2022-08-11T20:55:18.985Z,25.96
2022-08-11T21:00:47.507Z,26.17
2022-08-11T21:06:11.144Z,26.10
2022-08-11T21:11:33.581Z,26.46
2022-08-11T21:16:55.812Z,26.61
2022-08-11T21:22:19.712Z,26.60
2022-08-11T21:27:43.244Z,26.55
2022-08-11T21:33:04.218Z,27.00
2022-08-11T21:38:25.104Z,26.86
2022-08-11T21:43:49.950Z,27.44
2022-08-11T21:49:10.804Z,27.62
2022-08-11T21:54:37.337Z,27.53
2022-08-11T22:00:11.748Z,27.92
2022-08-11T22:05:35.386Z,28.04
2022-08-11T22:10:56.689Z,28.38
2022-08-11T22:16:18.045Z,28.58
2022-08-11T22:22:03.625Z,28.63
2022-08-11T22:27:20.008Z,28.54
2022-08-11T22:32:41.701Z,28.65
2022-08-11T22:38:05.167Z,28.83
2022-08-11T22:43:26.068Z,28.95
2022-08-11T22:48:49.541Z,28.70
2022-08-11T22:54:13.236Z,29.44
2022-08-11T22:59:35.265Z,29.53
2022-08-11T23:04:57.599Z,29.90
2022-08-11T23:10:18.411Z,29.95
2022-08-11T23:15:39.996Z,29.53
2022-08-11T23:21:02.495Z,29.84
2022-08-11T23:26:24.004Z,29.83
2022-08-11T23:31:51.257Z,30.20
2022-08-11T23:37:13.860Z,30.34
2022-08-11T23:42:36.038Z,30.79
2022-08-11T23:47:57.971Z,30.90
2022-08-11T23:53:18.926Z,31.78
2022-08-11T23:58:39.213Z,32.15
